createdAt,value
2023-05-05T04:53:22.266Z,7.30
2023-05-05T04:58:24.342Z,10.22
2023-05-05T05:03:26.429Z,11.34
2023-05-05T05:08:28.903Z,12.51
2023-05-05T05:13:30.875Z,11.84
2023-05-05T05:18:32.732Z,12.65
2023-05-05T05:23:34.707Z,13.14
2023-05-05T05:28:36.631Z,12.70
2023-05-05T05:33:38.501Z,13.60
2023-05-05T05:38:41.341Z,13.89
2023-05-05T05:43:44.182Z,13.43
2023-05-05T05:48:46.196Z,14.09
2023-05-05T05:53:48.792Z,13.94
2023-05-05T05:58:50.814Z,13.70
2023-05-05T06:03:53.777Z,14.53
2023-05-05T06:08:56.527Z,14.39
2023-05-05T06:13:59.231Z,14.82
2023-05-05T06:19:01.730Z,14.90
2023-05-05T06:24:03.952Z,14.68
2023-05-05T06:29:06.792Z,14.86
2023-05-05T06:34:08.593Z,15.13
2023-05-05T06:39:10.341Z,15.43
2023-05-05T06:44:12.075Z,15.37
2023-05-05T06:49:13.802Z,15.79
2023-05-05T06:54:15.556Z,16.11
2023-05-05T06:59:17.382Z,16.44
2023-05-05T07:04:19.272Z,15.31
2023-05-05T07:09:21.531Z,15.74
2023-05-05T07:14:24.525Z,15.76
2023-05-05T07:19:26.486Z,16.10
2023-05-05T07:24:28.314Z,15.83
2023-05-05T07:29:30.117Z,15.60
2023-05-05T07:34:34.365Z,14.57
2023-05-05T07:39:36.360Z,15.07
2023-05-05T07:44:38.147Z,15.37
2023-05-05T07:49:39.922Z,16.13
2023-05-05T07:54:42.453Z,17.31
2023-05-05T07:59:44.540Z,17.13
2023-05-05T08:04:46.435Z,12.95
2023-05-05T08:09:48.333Z,11.82
2023-05-05T08:14:50.148Z,12.23
2023-05-05T08:19:52.909Z,12.41
2023-05-05T08:24:54.693Z,13.39
2023-05-05T08:29:57.756Z,11.36
2023-05-05T08:35:03.264Z,10.60
2023-05-05T08:40:06.222Z,10.60
2023-05-05T08:45:10.008Z,12.20
2023-05-05T08:50:12.514Z,14.10
2023-05-05T08:55:21.800Z,11.90
2023-05-05T09:00:24.606Z,13.21
2023-05-05T09:05:26.801Z,13.21
2023-05-05T09:10:29.501Z,12.70
2023-05-05T09:15:32.159Z,12.37
2023-05-05T09:20:38.193Z,11.46
2023-05-05T09:25:41.719Z,12.45
2023-05-05T09:30:46.191Z,14.32
2023-05-05T09:35:57.364Z,12.89
2023-05-05T09:40:59.123Z,13.75
2023-05-05T09:46:08.036Z,14.79
2023-05-05T09:51:09.959Z,12.66
2023-05-05T09:56:12.267Z,12.40
2023-05-05T10:01:22.751Z,12.32
2023-05-05T10:06:48.584Z,11.67
2023-05-05T10:11:50.628Z,12.04
2023-05-05T10:16:55.311Z,13.64
2023-05-05T10:22:03.943Z,16.07
2023-05-05T10:27:24.007Z,17.82
2023-05-05T10:37:41.594Z,17.67
2023-05-05T10:42:43.755Z,19.11
2023-05-05T10:47:45.990Z,17.42
2023-05-05T10:53:26.787Z,13.05
2023-05-05T10:58:55.621Z,14.24
2023-05-05T11:04:21.583Z,14.72
2023-05-05T11:09:28.058Z,13.53
2023-05-05T11:14:29.857Z,14.57
2023-05-05T11:19:43.964Z,14.46
2023-05-05T11:24:46.345Z,14.63
2023-05-05T11:30:08.064Z,15.68
2023-05-05T11:35:10.012Z,15.62
2023-05-05T11:40:35.052Z,15.44
2023-05-05T11:45:36.839Z,15.76
2023-05-05T11:50:38.847Z,15.02
2023-05-05T11:55:40.551Z,14.95
2023-05-05T12:00:42.336Z,14.47
2023-05-05T12:05:44.316Z,17.13
2023-05-05T12:10:45.994Z,17.25
2023-05-05T12:15:48.271Z,14.96
2023-05-05T12:20:50.093Z,16.82
2023-05-05T12:25:51.878Z,16.44
2023-05-05T12:30:57.825Z,15.37
2023-05-05T12:35:59.565Z,15.35
2023-05-05T12:41:02.647Z,16.23
2023-05-05T12:46:10.729Z,16.63
2023-05-05T12:51:14.689Z,15.52
2023-05-05T12:56:36.418Z,16.56
2023-05-05T13:01:49.916Z,17.48
2023-05-05T13:07:14.784Z,17.63
2023-05-05T13:12:18.755Z,16.60
2023-05-05T13:17:20.526Z,16.37
2023-05-05T13:22:22.266Z,17.10
2023-05-05T13:27:23.986Z,16.73
2023-05-05T13:32:25.719Z,16.55
2023-05-05T13:37:27.776Z,16.73
2023-05-05T13:42:29.453Z,16.96
2023-05-05T13:47:31.205Z,16.31
2023-05-05T13:52:33.024Z,18.30
2023-05-05T13:57:35.425Z,19.75
2023-05-05T14:02:37.189Z,19.78
2023-05-05T14:07:39.104Z,19.53
2023-05-05T14:12:40.997Z,21.54
2023-05-05T14:17:42.870Z,19.80
2023-05-05T14:22:44.728Z,22.58
2023-05-05T14:27:46.535Z,21.88
2023-05-05T14:32:48.332Z,22.98
2023-05-05T14:37:50.111Z,23.28
2023-05-05T14:42:51.932Z,21.27
2023-05-05T14:47:53.946Z,21.89
2023-05-05T14:52:55.805Z,21.81
2023-05-05T14:57:57.640Z,20.86
2023-05-05T15:02:59.431Z,21.48
2023-05-05T15:08:01.468Z,21.68
2023-05-05T15:13:03.257Z,20.28
2023-05-05T15:18:05.600Z,20.09
2023-05-05T15:23:07.332Z,19.88
2023-05-05T15:28:09.116Z,21.24
2023-05-05T15:33:11.099Z,22.35
2023-05-05T15:38:12.845Z,21.99
2023-05-05T15:43:14.677Z,22.52
2023-05-05T15:48:16.456Z,21.15
2023-05-05T15:53:18.295Z,21.22
2023-05-05T15:58:20.175Z,22.08
2023-05-05T16:03:22.102Z,19.43
2023-05-05T16:08:24.145Z,22.13
2023-05-05T16:13:25.982Z,22.92
2023-05-05T16:18:27.798Z,19.73
2023-05-05T16:23:29.619Z,19.10
2023-05-05T16:28:31.413Z,22.50
2023-05-05T16:33:33.222Z,22.78
2023-05-05T16:38:35.019Z,19.94
2023-05-05T16:43:37.290Z,21.46
2023-05-05T16:48:39.242Z,23.37
2023-05-05T16:53:41.099Z,22.86
2023-05-05T16:58:42.935Z,20.54
2023-05-05T17:03:44.769Z,20.78
2023-05-05T17:08:46.740Z,21.25
2023-05-05T17:13:48.544Z,23.33
2023-05-05T17:18:50.478Z,19.80
2023-05-05T17:23:52.265Z,20.55
2023-05-05T17:28:54.043Z,24.34
2023-05-05T17:33:56.093Z,22.34
2023-05-05T17:38:57.934Z,20.21
2023-05-05T17:43:59.751Z,21.42
2023-05-05T17:49:01.605Z,20.77
2023-05-05T17:54:03.481Z,21.29
2023-05-05T17:59:05.280Z,22.97
2023-05-05T18:04:07.021Z,22.13
2023-05-05T18:09:11.238Z,22.58
2023-05-05T18:14:13.223Z,20.18
2023-05-05T18:19:15.618Z,20.21
2023-05-05T18:24:20.502Z,20.47
2023-05-05T18:29:22.709Z,20.50
2023-05-05T18:34:24.469Z,18.83
2023-05-05T18:39:26.941Z,18.32
2023-05-05T18:44:29.153Z,19.43
2023-05-05T18:49:31.564Z,18.48
2023-05-05T18:54:34.672Z,19.91
2023-05-05T18:59:38.053Z,21.07
2023-05-05T19:04:41.312Z,21.85
2023-05-05T19:09:43.297Z,22.25
2023-05-05T19:14:45.124Z,22.05
2023-05-05T19:19:46.899Z,21.53
2023-05-05T19:24:48.619Z,20.85
2023-05-05T19:29:52.518Z,21.39
2023-05-05T19:34:54.678Z,20.49
2023-05-05T19:39:56.555Z,21.22
2023-05-05T19:44:58.417Z,20.68
2023-05-05T19:50:00.288Z,18.04
2023-05-05T19:55:02.593Z,19.12
2023-05-05T20:00:04.919Z,19.68
2023-05-05T20:05:07.741Z,19.62
2023-05-05T20:10:10.639Z,19.77
2023-05-05T20:15:12.660Z,20.34
2023-05-05T20:20:21.305Z,19.99
2023-05-05T20:25:23.070Z,19.64
2023-05-05T20:30:24.855Z,19.50
2023-05-05T20:35:26.777Z,18.17
2023-05-05T20:40:28.601Z,18.76
2023-05-05T20:45:31.767Z,18.38
2023-05-05T20:50:33.524Z,18.43
2023-05-05T20:55:35.527Z,17.85
2023-05-05T21:00:37.450Z,18.52
2023-05-05T21:05:42.893Z,18.47
2023-05-05T21:10:44.755Z,18.43
2023-05-05T21:15:46.516Z,18.77
2023-05-05T21:20:48.300Z,18.42
2023-05-05T21:25:50.139Z,18.00
2023-05-05T21:31:10.141Z,17.96
2023-05-05T21:36:17.437Z,18.17
2023-05-05T21:41:19.224Z,18.11
2023-05-05T21:46:21.101Z,17.51
2023-05-05T21:51:23.528Z,17.45
2023-05-05T21:56:25.286Z,17.53
2023-05-05T22:01:27.117Z,16.94
2023-05-05T22:06:29.010Z,16.78
2023-05-05T22:11:31.240Z,17.18
2023-05-05T22:16:33.050Z,16.80
2023-05-05T22:21:34.883Z,16.74
2023-05-05T22:26:36.651Z,17.26
2023-05-05T22:31:38.759Z,17.11
2023-05-05T22:36:40.750Z,17.45
2023-05-05T22:41:42.534Z,17.53
2023-05-05T22:46:44.375Z,17.61
2023-05-05T22:51:46.949Z,17.66
2023-05-05T22:56:48.711Z,18.24
2023-05-05T23:01:50.482Z,18.30
2023-05-05T23:06:52.203Z,18.43
2023-05-05T23:11:54.070Z,18.02
2023-05-05T23:16:55.877Z,18.45
2023-05-05T23:21:57.994Z,17.92
2023-05-05T23:27:04.113Z,18.18
2023-05-05T23:32:08.789Z,17.44
2023-05-05T23:37:10.655Z,18.15
2023-05-05T23:42:12.396Z,17.30
2023-05-05T23:47:14.101Z,16.86
2023-05-05T23:52:16.080Z,17.50
2023-05-05T23:57:17.819Z,17.07
